Terminal Aerodrome Forecast
Issued by NWS Omaha/Valley, NE

Home | Current Version | Previous Version | Graphics & Text | Print | Product List | Glossary On
Versions: 1 2 3 4 5 6 7 8 9 10 11 12 13 14 15 16 17 18 19 20 21 22 23 24 25 26 27 28 29 30 31 32 33 34
000
FTUS43 KOAX 230520
TAFOFK
TAF
KOFK 230520Z 2306/2406 16008KT P6SM SCT035 OVC090
      TEMPO 2306/2310 5SM -SHRA
     FM231000 16010KT P6SM OVC070
      TEMPO 2310/2314 5SM -SHRA OVC035
     FM231400 15010KT P6SM -SHRA SCT015 OVC035
      TEMPO 2314/2318 4SM -SHRA BR OVC015
     FM231800 16015G22KT P6SM -SHRA BKN020 OVC030=

USA.gov is the U.S. government's official web portal to all federal, state and local government web resources and services.